sensor_id;sensor_type;location;lat;lon;timestamp;temperature;humidity
30628;DHT22;17394;50.890;4.724;2023-05-29T00:01:56;14.60;99.90
30628;DHT22;17394;50.890;4.724;2023-05-29T00:04:28;14.60;99.90
30628;DHT22;17394;50.890;4.724;2023-05-29T00:06:55;14.60;99.90
30628;DHT22;17394;50.890;4.724;2023-05-29T00:09:21;14.50;99.90
30628;DHT22;17394;50.890;4.724;2023-05-29T00:11:49;14.50;99.90
30628;DHT22;17394;50.890;4.724;2023-05-29T00:14:18;14.40;99.90
30628;DHT22;17394;50.890;4.724;2023-05-29T00:16:48;14.40;99.90
30628;DHT22;17394;50.890;4.724;2023-05-29T00:19:14;14.40;99.90
30628;DHT22;17394;50.890;4.724;2023-05-29T00:21:45;14.30;99.90
30628;DHT22;17394;50.890;4.724;2023-05-29T00:24:15;14.30;99.90
30628;DHT22;17394;50.890;4.724;2023-05-29T00:26:44;14.20;99.90
30628;DHT22;17394;50.890;4.724;2023-05-29T00:29:17;14.20;99.90
30628;DHT22;17394;50.890;4.724;2023-05-29T00:31:43;14.20;99.90
30628;DHT22;17394;50.890;4.724;2023-05-29T00:34:12;14.10;99.90
30628;DHT22;17394;50.890;4.724;2023-05-29T00:36:39;14.10;99.90
30628;DHT22;17394;50.890;4.724;2023-05-29T00:39:06;14.00;99.90
30628;DHT22;17394;50.890;4.724;2023-05-29T00:41:32;14.00;99.90
30628;DHT22;17394;50.890;4.724;2023-05-29T00:43:59;14.00;99.90
30628;DHT22;17394;50.890;4.724;2023-05-29T00:46:26;13.90;99.90
30628;DHT22;17394;50.890;4.724;2023-05-29T00:48:52;13.90;99.90
30628;DHT22;17394;50.890;4.724;2023-05-29T00:51:19;13.90;99.90
30628;DHT22;17394;50.890;4.724;2023-05-29T00:53:45;13.80;99.90
30628;DHT22;17394;50.890;4.724;2023-05-29T00:56:12;13.80;99.90
30628;DHT22;17394;50.890;4.724;2023-05-29T00:58:39;13.70;99.90
30628;DHT22;17394;50.890;4.724;2023-05-29T01:01:08;13.70;99.90
30628;DHT22;17394;50.890;4.724;2023-05-29T01:03:36;13.60;99.90
30628;DHT22;17394;50.890;4.724;2023-05-29T01:06:05;13.50;99.90
30628;DHT22;17394;50.890;4.724;2023-05-29T01:08:33;13.50;99.90
30628;DHT22;17394;50.890;4.724;2023-05-29T01:14:00;13.40;99.90
30628;DHT22;17394;50.890;4.724;2023-05-29T01:16:31;13.40;99.90
30628;DHT22;17394;50.890;4.724;2023-05-29T01:27:26;13.20;99.90
30628;DHT22;17394;50.890;4.724;2023-05-29T01:29:53;13.20;99.90
30628;DHT22;17394;50.890;4.724;2023-05-29T01:32:22;13.10;99.90
30628;DHT22;17394;50.890;4.724;2023-05-29T01:34:52;13.00;99.90
30628;DHT22;17394;50.890;4.724;2023-05-29T01:37:19;13.00;99.90
30628;DHT22;17394;50.890;4.724;2023-05-29T01:39:48;12.90;99.90
30628;DHT22;17394;50.890;4.724;2023-05-29T01:42:16;12.90;99.90
30628;DHT22;17394;50.890;4.724;2023-05-29T01:44:42;12.90;99.90
30628;DHT22;17394;50.890;4.724;2023-05-29T01:47:12;12.80;99.90
30628;DHT22;17394;50.890;4.724;2023-05-29T01:49:45;12.80;99.90
30628;DHT22;17394;50.890;4.724;2023-05-29T01:52:13;12.80;99.90
30628;DHT22;17394;50.890;4.724;2023-05-29T01:54:39;12.70;99.90
30628;DHT22;17394;50.890;4.724;2023-05-29T01:57:06;12.70;99.90
30628;DHT22;17394;50.890;4.724;2023-05-29T01:59:33;12.70;99.90
30628;DHT22;17394;50.890;4.724;2023-05-29T02:02:06;12.60;99.90
30628;DHT22;17394;50.890;4.724;2023-05-29T02:04:32;12.60;99.90
30628;DHT22;17394;50.890;4.724;2023-05-29T02:06:59;12.60;99.90
30628;DHT22;17394;50.890;4.724;2023-05-29T02:09:26;12.50;99.90
30628;DHT22;17394;50.890;4.724;2023-05-29T02:11:54;12.50;99.90
30628;DHT22;17394;50.890;4.724;2023-05-29T02:14:24;12.50;99.90
30628;DHT22;17394;50.890;4.724;2023-05-29T02:17:02;12.50;99.90
30628;DHT22;17394;50.890;4.724;2023-05-29T02:19:32;12.40;99.90
30628;DHT22;17394;50.890;4.724;2023-05-29T02:21:59;12.40;99.90
30628;DHT22;17394;50.890;4.724;2023-05-29T02:24:26;12.40;99.90
30628;DHT22;17394;50.890;4.724;2023-05-29T02:26:56;12.30;99.90
30628;DHT22;17394;50.890;4.724;2023-05-29T02:29:22;12.30;99.90
30628;DHT22;17394;50.890;4.724;2023-05-29T02:31:49;12.30;99.90
30628;DHT22;17394;50.890;4.724;2023-05-29T02:34:20;12.30;99.90
30628;DHT22;17394;50.890;4.724;2023-05-29T02:36:49;12.30;99.90
30628;DHT22;17394;50.890;4.724;2023-05-29T02:39:15;12.20;99.90
30628;DHT22;17394;50.890;4.724;2023-05-29T02:41:42;12.20;99.90
30628;DHT22;17394;50.890;4.724;2023-05-29T02:44:10;12.20;99.90
30628;DHT22;17394;50.890;4.724;2023-05-29T02:46:40;12.20;99.90
30628;DHT22;17394;50.890;4.724;2023-05-29T02:49:09;12.10;99.90
30628;DHT22;17394;50.890;4.724;2023-05-29T02:51:37;12.10;99.90
30628;DHT22;17394;50.890;4.724;2023-05-29T02:54:04;12.10;99.90
30628;DHT22;17394;50.890;4.724;2023-05-29T02:56:37;12.00;99.90
30628;DHT22;17394;50.890;4.724;2023-05-29T02:59:07;12.00;99.90
30628;DHT22;17394;50.890;4.724;2023-05-29T03:01:33;12.00;99.90
30628;DHT22;17394;50.890;4.724;2023-05-29T03:04:00;11.90;99.90
30628;DHT22;17394;50.890;4.724;2023-05-29T03:06:27;11.80;99.90
30628;DHT22;17394;50.890;4.724;2023-05-29T03:08:53;11.80;99.90
30628;DHT22;17394;50.890;4.724;2023-05-29T03:11:20;11.70;99.90
30628;DHT22;17394;50.890;4.724;2023-05-29T03:13:49;11.70;99.90
30628;DHT22;17394;50.890;4.724;2023-05-29T03:16:15;11.60;99.90
30628;DHT22;17394;50.890;4.724;2023-05-29T03:18:42;11.60;99.90
30628;DHT22;17394;50.890;4.724;2023-05-29T03:21:08;11.50;99.90
30628;DHT22;17394;50.890;4.724;2023-05-29T03:23:38;11.50;99.90
30628;DHT22;17394;50.890;4.724;2023-05-29T03:26:05;11.50;99.90
30628;DHT22;17394;50.890;4.724;2023-05-29T03:28:34;11.40;99.90
30628;DHT22;17394;50.890;4.724;2023-05-29T03:31:01;11.40;99.90
30628;DHT22;17394;50.890;4.724;2023-05-29T03:33:31;11.30;99.90
30628;DHT22;17394;50.890;4.724;2023-05-29T03:35:57;11.30;99.90
30628;DHT22;17394;50.890;4.724;2023-05-29T03:38:24;11.30;99.90
30628;DHT22;17394;50.890;4.724;2023-05-29T03:40:54;11.20;99.90
30628;DHT22;17394;50.890;4.724;2023-05-29T03:43:22;11.20;99.90
30628;DHT22;17394;50.890;4.724;2023-05-29T03:45:48;11.20;99.90
30628;DHT22;17394;50.890;4.724;2023-05-29T03:48:15;11.20;99.90
30628;DHT22;17394;50.890;4.724;2023-05-29T03:50:44;11.10;99.90
30628;DHT22;17394;50.890;4.724;2023-05-29T03:53:11;11.10;99.90
30628;DHT22;17394;50.890;4.724;2023-05-29T03:55:38;11.10;99.90
30628;DHT22;17394;50.890;4.724;2023-05-29T03:58:05;11.10;99.90
30628;DHT22;17394;50.890;4.724;2023-05-29T04:00:34;11.10;99.90
30628;DHT22;17394;50.890;4.724;2023-05-29T04:03:04;11.00;99.90
30628;DHT22;17394;50.890;4.724;2023-05-29T04:05:35;11.00;99.90
30628;DHT22;17394;50.890;4.724;2023-05-29T04:08:01;11.00;99.90
30628;DHT22;17394;50.890;4.724;2023-05-29T04:10:32;11.00;99.90
30628;DHT22;17394;50.890;4.724;2023-05-29T04:12:59;11.00;99.90
30628;DHT22;17394;50.890;4.724;2023-05-29T04:15:29;11.00;99.90
30628;DHT22;17394;50.890;4.724;2023-05-29T04:17:56;11.00;99.90
30628;DHT22;17394;50.890;4.724;2023-05-29T04:20:23;11.00;99.90
30628;DHT22;17394;50.890;4.724;2023-05-29T04:22:51;11.00;99.90
30628;DHT22;17394;50.890;4.724;2023-05-29T04:25:18;11.00;99.90
30628;DHT22;17394;50.890;4.724;2023-05-29T04:27:44;10.90;99.90
30628;DHT22;17394;50.890;4.724;2023-05-29T04:30:14;10.90;99.90
30628;DHT22;17394;50.890;4.724;2023-05-29T04:32:44;10.90;99.90
30628;DHT22;17394;50.890;4.724;2023-05-29T04:35:12;10.90;99.90
30628;DHT22;17394;50.890;4.724;2023-05-29T04:37:46;10.90;99.90
30628;DHT22;17394;50.890;4.724;2023-05-29T04:40:17;10.90;99.90
30628;DHT22;17394;50.890;4.724;2023-05-29T04:42:44;10.80;99.90
30628;DHT22;17394;50.890;4.724;2023-05-29T04:45:13;10.80;99.90
30628;DHT22;17394;50.890;4.724;2023-05-29T04:47:42;10.80;99.90
30628;DHT22;17394;50.890;4.724;2023-05-29T04:50:16;10.80;99.90
30628;DHT22;17394;50.890;4.724;2023-05-29T04:52:43;10.80;99.90
30628;DHT22;17394;50.890;4.724;2023-05-29T04:55:15;10.80;99.90
30628;DHT22;17394;50.890;4.724;2023-05-29T04:57:44;10.80;99.90
30628;DHT22;17394;50.890;4.724;2023-05-29T05:00:10;10.90;99.90
30628;DHT22;17394;50.890;4.724;2023-05-29T05:02:45;10.90;99.90
30628;DHT22;17394;50.890;4.724;2023-05-29T05:05:12;10.90;99.90
30628;DHT22;17394;50.890;4.724;2023-05-29T05:07:41;10.90;99.90
30628;DHT22;17394;50.890;4.724;2023-05-29T05:10:16;10.90;99.90
30628;DHT22;17394;50.890;4.724;2023-05-29T05:12:42;10.90;99.90
30628;DHT22;17394;50.890;4.724;2023-05-29T05:15:17;10.90;99.90
30628;DHT22;17394;50.890;4.724;2023-05-29T05:17:46;10.90;99.90
30628;DHT22;17394;50.890;4.724;2023-05-29T05:20:16;11.00;99.90
30628;DHT22;17394;50.890;4.724;2023-05-29T05:22:47;11.00;99.90
30628;DHT22;17394;50.890;4.724;2023-05-29T05:25:17;11.00;99.90
30628;DHT22;17394;50.890;4.724;2023-05-29T05:27:49;11.10;99.90
30628;DHT22;17394;50.890;4.724;2023-05-29T05:30:21;11.00;99.90
30628;DHT22;17394;50.890;4.724;2023-05-29T05:32:54;11.10;99.90
30628;DHT22;17394;50.890;4.724;2023-05-29T05:35:24;11.10;99.90
30628;DHT22;17394;50.890;4.724;2023-05-29T05:37:50;11.10;99.90
30628;DHT22;17394;50.890;4.724;2023-05-29T05:40:19;11.20;99.90
30628;DHT22;17394;50.890;4.724;2023-05-29T05:42:45;11.20;99.90
30628;DHT22;17394;50.890;4.724;2023-05-29T05:45:14;11.20;99.90
30628;DHT22;17394;50.890;4.724;2023-05-29T05:47:41;11.20;99.90
30628;DHT22;17394;50.890;4.724;2023-05-29T05:50:09;11.30;99.90
30628;DHT22;17394;50.890;4.724;2023-05-29T05:52:41;11.30;99.90
30628;DHT22;17394;50.890;4.724;2023-05-29T05:55:13;11.30;99.90
30628;DHT22;17394;50.890;4.724;2023-05-29T05:57:39;11.30;99.90
30628;DHT22;17394;50.890;4.724;2023-05-29T06:00:05;11.40;99.90
30628;DHT22;17394;50.890;4.724;2023-05-29T06:02:37;11.40;99.90
30628;DHT22;17394;50.890;4.724;2023-05-29T06:05:08;11.50;99.90
30628;DHT22;17394;50.890;4.724;2023-05-29T06:07:38;11.50;99.90
30628;DHT22;17394;50.890;4.724;2023-05-29T06:10:05;11.60;99.90
30628;DHT22;17394;50.890;4.724;2023-05-29T06:12:32;11.60;99.90
30628;DHT22;17394;50.890;4.724;2023-05-29T06:14:58;11.70;99.90
30628;DHT22;17394;50.890;4.724;2023-05-29T06:17:29;11.70;99.90
30628;DHT22;17394;50.890;4.724;2023-05-29T06:19:55;11.80;99.90
30628;DHT22;17394;50.890;4.724;2023-05-29T06:22:24;11.80;99.90
30628;DHT22;17394;50.890;4.724;2023-05-29T06:24:51;11.90;99.90
30628;DHT22;17394;50.890;4.724;2023-05-29T06:27:17;11.90;99.90
30628;DHT22;17394;50.890;4.724;2023-05-29T06:29:44;12.00;99.90
30628;DHT22;17394;50.890;4.724;2023-05-29T06:32:10;12.10;99.90
30628;DHT22;17394;50.890;4.724;2023-05-29T06:34:39;12.20;99.90
30628;DHT22;17394;50.890;4.724;2023-05-29T06:37:05;12.30;99.90
30628;DHT22;17394;50.890;4.724;2023-05-29T06:39:38;12.40;99.90
30628;DHT22;17394;50.890;4.724;2023-05-29T06:42:10;12.60;99.90
30628;DHT22;17394;50.890;4.724;2023-05-29T06:44:36;12.80;99.90
30628;DHT22;17394;50.890;4.724;2023-05-29T06:47:03;12.90;99.90
30628;DHT22;17394;50.890;4.724;2023-05-29T06:49:33;13.00;99.90
30628;DHT22;17394;50.890;4.724;2023-05-29T06:52:07;13.20;99.90
30628;DHT22;17394;50.890;4.724;2023-05-29T06:54:33;13.20;99.90
30628;DHT22;17394;50.890;4.724;2023-05-29T06:57:00;13.30;99.90
30628;DHT22;17394;50.890;4.724;2023-05-29T06:59:26;13.40;99.90
30628;DHT22;17394;50.890;4.724;2023-05-29T07:01:52;13.50;99.90
30628;DHT22;17394;50.890;4.724;2023-05-29T07:04:18;13.50;99.90
30628;DHT22;17394;50.890;4.724;2023-05-29T07:06:44;13.50;99.90
30628;DHT22;17394;50.890;4.724;2023-05-29T07:09:10;13.70;99.90
30628;DHT22;17394;50.890;4.724;2023-05-29T07:11:37;13.90;99.90
30628;DHT22;17394;50.890;4.724;2023-05-29T07:14:07;14.00;99.90
30628;DHT22;17394;50.890;4.724;2023-05-29T07:16:33;14.10;99.90
30628;DHT22;17394;50.890;4.724;2023-05-29T07:18:59;14.20;99.90
30628;DHT22;17394;50.890;4.724;2023-05-29T07:21:28;14.30;99.90
30628;DHT22;17394;50.890;4.724;2023-05-29T07:23:54;14.50;99.90
30628;DHT22;17394;50.890;4.724;2023-05-29T07:26:20;14.50;99.90
30628;DHT22;17394;50.890;4.724;2023-05-29T07:28:48;14.60;99.90
30628;DHT22;17394;50.890;4.724;2023-05-29T07:31:14;14.70;99.90
30628;DHT22;17394;50.890;4.724;2023-05-29T07:33:40;14.90;99.90
30628;DHT22;17394;50.890;4.724;2023-05-29T07:36:09;15.00;99.90
30628;DHT22;17394;50.890;4.724;2023-05-29T07:38:41;15.00;99.90
30628;DHT22;17394;50.890;4.724;2023-05-29T07:41:11;15.10;99.90
30628;DHT22;17394;50.890;4.724;2023-05-29T07:43:41;15.10;99.90
30628;DHT22;17394;50.890;4.724;2023-05-29T07:46:07;15.20;99.90
30628;DHT22;17394;50.890;4.724;2023-05-29T07:48:33;15.30;99.90
30628;DHT22;17394;50.890;4.724;2023-05-29T07:51:00;15.50;99.90
30628;DHT22;17394;50.890;4.724;2023-05-29T07:53:27;15.70;99.90
30628;DHT22;17394;50.890;4.724;2023-05-29T07:55:54;15.70;99.90
30628;DHT22;17394;50.890;4.724;2023-05-29T07:58:22;15.90;99.90
30628;DHT22;17394;50.890;4.724;2023-05-29T08:00:48;16.10;99.90
30628;DHT22;17394;50.890;4.724;2023-05-29T08:03:15;16.20;99.90
30628;DHT22;17394;50.890;4.724;2023-05-29T08:05:41;16.30;99.90
30628;DHT22;17394;50.890;4.724;2023-05-29T08:08:08;16.20;99.90
30628;DHT22;17394;50.890;4.724;2023-05-29T08:10:35;16.20;99.90
30628;DHT22;17394;50.890;4.724;2023-05-29T08:13:02;16.20;99.90
30628;DHT22;17394;50.890;4.724;2023-05-29T08:15:31;16.20;99.90
30628;DHT22;17394;50.890;4.724;2023-05-29T08:17:58;16.20;99.90
30628;DHT22;17394;50.890;4.724;2023-05-29T08:20:27;16.30;99.90
30628;DHT22;17394;50.890;4.724;2023-05-29T08:22:57;16.40;99.90
30628;DHT22;17394;50.890;4.724;2023-05-29T08:25:24;16.40;99.90
30628;DHT22;17394;50.890;4.724;2023-05-29T08:27:50;16.60;99.90
30628;DHT22;17394;50.890;4.724;2023-05-29T08:30:17;16.80;99.90
30628;DHT22;17394;50.890;4.724;2023-05-29T08:32:44;17.00;99.90
30628;DHT22;17394;50.890;4.724;2023-05-29T08:35:11;17.10;99.90
30628;DHT22;17394;50.890;4.724;2023-05-29T08:37:37;17.20;99.90
30628;DHT22;17394;50.890;4.724;2023-05-29T08:40:03;17.30;99.90
30628;DHT22;17394;50.890;4.724;2023-05-29T08:42:36;17.40;99.90
30628;DHT22;17394;50.890;4.724;2023-05-29T08:45:09;17.50;99.90
30628;DHT22;17394;50.890;4.724;2023-05-29T08:47:38;17.40;99.90
30628;DHT22;17394;50.890;4.724;2023-05-29T08:50:08;17.30;99.90
30628;DHT22;17394;50.890;4.724;2023-05-29T08:52:37;17.40;99.90
30628;DHT22;17394;50.890;4.724;2023-05-29T08:55:04;17.30;99.90
30628;DHT22;17394;50.890;4.724;2023-05-29T08:57:32;17.30;99.90
30628;DHT22;17394;50.890;4.724;2023-05-29T09:00:01;17.40;99.90
30628;DHT22;17394;50.890;4.724;2023-05-29T09:02:33;17.50;99.90
30628;DHT22;17394;50.890;4.724;2023-05-29T09:05:02;17.50;99.90
30628;DHT22;17394;50.890;4.724;2023-05-29T09:07:29;17.60;99.90
30628;DHT22;17394;50.890;4.724;2023-05-29T09:09:56;17.50;99.90
30628;DHT22;17394;50.890;4.724;2023-05-29T09:12:28;17.50;99.90
30628;DHT22;17394;50.890;4.724;2023-05-29T09:14:58;17.60;99.90
30628;DHT22;17394;50.890;4.724;2023-05-29T09:17:29;17.70;99.90
30628;DHT22;17394;50.890;4.724;2023-05-29T09:19:56;17.80;99.90
30628;DHT22;17394;50.890;4.724;2023-05-29T09:22:22;17.60;99.90
30628;DHT22;17394;50.890;4.724;2023-05-29T09:24:55;17.50;99.90
30628;DHT22;17394;50.890;4.724;2023-05-29T09:27:23;17.50;99.90
30628;DHT22;17394;50.890;4.724;2023-05-29T09:29:49;17.50;99.90
30628;DHT22;17394;50.890;4.724;2023-05-29T09:32:16;17.50;99.90
30628;DHT22;17394;50.890;4.724;2023-05-29T09:34:43;17.60;99.90
30628;DHT22;17394;50.890;4.724;2023-05-29T09:37:10;17.70;99.90
30628;DHT22;17394;50.890;4.724;2023-05-29T09:39:47;17.80;99.90
30628;DHT22;17394;50.890;4.724;2023-05-29T09:42:25;18.00;99.90
30628;DHT22;17394;50.890;4.724;2023-05-29T09:44:52;18.20;99.90
30628;DHT22;17394;50.890;4.724;2023-05-29T09:47:18;18.50;99.90
30628;DHT22;17394;50.890;4.724;2023-05-29T09:49:46;18.80;99.90
30628;DHT22;17394;50.890;4.724;2023-05-29T09:52:13;19.00;99.90
30628;DHT22;17394;50.890;4.724;2023-05-29T09:54:42;19.20;99.90
30628;DHT22;17394;50.890;4.724;2023-05-29T09:57:12;19.10;99.90
30628;DHT22;17394;50.890;4.724;2023-05-29T09:59:40;19.00;99.90
30628;DHT22;17394;50.890;4.724;2023-05-29T10:02:07;18.70;99.90
30628;DHT22;17394;50.890;4.724;2023-05-29T10:04:37;18.70;99.90
30628;DHT22;17394;50.890;4.724;2023-05-29T10:07:20;18.70;99.90
30628;DHT22;17394;50.890;4.724;2023-05-29T10:09:52;18.60;99.90
30628;DHT22;17394;50.890;4.724;2023-05-29T10:12:20;18.60;99.90
30628;DHT22;17394;50.890;4.724;2023-05-29T10:14:49;18.60;99.90
30628;DHT22;17394;50.890;4.724;2023-05-29T10:17:15;18.40;99.90
30628;DHT22;17394;50.890;4.724;2023-05-29T10:19:43;18.50;99.90
30628;DHT22;17394;50.890;4.724;2023-05-29T10:22:12;18.50;99.90
30628;DHT22;17394;50.890;4.724;2023-05-29T10:24:39;18.50;99.90
30628;DHT22;17394;50.890;4.724;2023-05-29T10:27:05;18.50;99.90
30628;DHT22;17394;50.890;4.724;2023-05-29T10:29:43;18.50;99.90
30628;DHT22;17394;50.890;4.724;2023-05-29T10:40:07;18.80;99.90
30628;DHT22;17394;50.890;4.724;2023-05-29T10:42:43;18.90;99.90
30628;DHT22;17394;50.890;4.724;2023-05-29T10:45:10;18.90;99.90
30628;DHT22;17394;50.890;4.724;2023-05-29T10:47:38;18.70;99.90
30628;DHT22;17394;50.890;4.724;2023-05-29T10:50:04;18.80;99.90
30628;DHT22;17394;50.890;4.724;2023-05-29T10:52:31;18.80;99.90
30628;DHT22;17394;50.890;4.724;2023-05-29T10:54:57;18.90;99.90
30628;DHT22;17394;50.890;4.724;2023-05-29T10:57:23;18.90;99.90
30628;DHT22;17394;50.890;4.724;2023-05-29T10:59:59;19.10;99.90
30628;DHT22;17394;50.890;4.724;2023-05-29T11:02:25;19.30;99.90
30628;DHT22;17394;50.890;4.724;2023-05-29T11:05:04;19.50;99.90
30628;DHT22;17394;50.890;4.724;2023-05-29T11:07:50;19.50;99.90
30628;DHT22;17394;50.890;4.724;2023-05-29T11:10:17;19.50;99.90
30628;DHT22;17394;50.890;4.724;2023-05-29T11:13:03;19.60;99.90
30628;DHT22;17394;50.890;4.724;2023-05-29T11:15:30;19.70;99.90
30628;DHT22;17394;50.890;4.724;2023-05-29T11:17:56;19.70;99.90
30628;DHT22;17394;50.890;4.724;2023-05-29T11:20:41;19.70;99.90
30628;DHT22;17394;50.890;4.724;2023-05-29T11:23:09;19.80;99.90
30628;DHT22;17394;50.890;4.724;2023-05-29T11:25:41;19.80;99.90
30628;DHT22;17394;50.890;4.724;2023-05-29T11:28:09;20.10;99.90
30628;DHT22;17394;50.890;4.724;2023-05-29T11:30:46;20.30;99.90
30628;DHT22;17394;50.890;4.724;2023-05-29T11:33:15;20.40;99.90
30628;DHT22;17394;50.890;4.724;2023-05-29T11:35:44;20.50;99.90
30628;DHT22;17394;50.890;4.724;2023-05-29T11:38:11;20.70;99.90
30628;DHT22;17394;50.890;4.724;2023-05-29T11:40:37;20.70;99.90
30628;DHT22;17394;50.890;4.724;2023-05-29T11:43:05;20.80;99.90
30628;DHT22;17394;50.890;4.724;2023-05-29T11:45:32;20.90;99.90
30628;DHT22;17394;50.890;4.724;2023-05-29T11:48:02;21.20;99.90
30628;DHT22;17394;50.890;4.724;2023-05-29T11:50:29;21.40;99.90
30628;DHT22;17394;50.890;4.724;2023-05-29T11:52:56;21.60;99.90
30628;DHT22;17394;50.890;4.724;2023-05-29T11:55:22;21.50;99.90
30628;DHT22;17394;50.890;4.724;2023-05-29T11:57:48;21.30;99.90
30628;DHT22;17394;50.890;4.724;2023-05-29T12:00:15;21.10;99.90
30628;DHT22;17394;50.890;4.724;2023-05-29T12:02:42;20.80;99.90
30628;DHT22;17394;50.890;4.724;2023-05-29T12:05:08;20.70;99.90
30628;DHT22;17394;50.890;4.724;2023-05-29T12:07:34;20.70;99.90
30628;DHT22;17394;50.890;4.724;2023-05-29T12:10:10;20.60;99.90
30628;DHT22;17394;50.890;4.724;2023-05-29T12:12:36;20.70;99.90
30628;DHT22;17394;50.890;4.724;2023-05-29T12:15:02;20.80;99.90
30628;DHT22;17394;50.890;4.724;2023-05-29T12:17:31;21.00;99.90
30628;DHT22;17394;50.890;4.724;2023-05-29T12:19:57;21.10;99.90
30628;DHT22;17394;50.890;4.724;2023-05-29T12:22:32;21.20;99.90
30628;DHT22;17394;50.890;4.724;2023-05-29T12:25:03;21.30;99.90
30628;DHT22;17394;50.890;4.724;2023-05-29T12:27:28;21.30;99.90
30628;DHT22;17394;50.890;4.724;2023-05-29T12:30:01;21.30;99.90
30628;DHT22;17394;50.890;4.724;2023-05-29T12:32:48;21.20;99.90
30628;DHT22;17394;50.890;4.724;2023-05-29T12:35:16;21.20;99.90
30628;DHT22;17394;50.890;4.724;2023-05-29T12:37:43;21.30;99.90
30628;DHT22;17394;50.890;4.724;2023-05-29T12:40:19;21.50;99.90
30628;DHT22;17394;50.890;4.724;2023-05-29T12:42:46;21.40;99.90
30628;DHT22;17394;50.890;4.724;2023-05-29T12:45:12;21.20;99.90
30628;DHT22;17394;50.890;4.724;2023-05-29T12:47:44;21.20;99.90
30628;DHT22;17394;50.890;4.724;2023-05-29T12:50:25;21.10;99.90
30628;DHT22;17394;50.890;4.724;2023-05-29T12:55:20;21.30;99.90
30628;DHT22;17394;50.890;4.724;2023-05-29T12:57:46;21.40;99.90
30628;DHT22;17394;50.890;4.724;2023-05-29T13:00:12;21.30;99.90
30628;DHT22;17394;50.890;4.724;2023-05-29T13:02:38;21.30;99.90
30628;DHT22;17394;50.890;4.724;2023-05-29T13:05:04;21.30;99.90
30628;DHT22;17394;50.890;4.724;2023-05-29T13:07:31;21.40;99.90
30628;DHT22;17394;50.890;4.724;2023-05-29T13:09:57;21.50;99.90
30628;DHT22;17394;50.890;4.724;2023-05-29T13:12:23;21.60;99.90
30628;DHT22;17394;50.890;4.724;2023-05-29T13:14:48;21.70;99.90
30628;DHT22;17394;50.890;4.724;2023-05-29T13:17:15;21.40;99.90
30628;DHT22;17394;50.890;4.724;2023-05-29T13:19:41;21.30;99.90
30628;DHT22;17394;50.890;4.724;2023-05-29T13:22:07;21.30;99.90
30628;DHT22;17394;50.890;4.724;2023-05-29T13:24:33;21.40;99.90
30628;DHT22;17394;50.890;4.724;2023-05-29T13:26:58;21.30;99.90
30628;DHT22;17394;50.890;4.724;2023-05-29T13:29:26;21.20;99.90
30628;DHT22;17394;50.890;4.724;2023-05-29T13:31:52;21.40;99.90
30628;DHT22;17394;50.890;4.724;2023-05-29T13:34:18;21.60;99.90
30628;DHT22;17394;50.890;4.724;2023-05-29T13:36:44;21.80;99.90
30628;DHT22;17394;50.890;4.724;2023-05-29T13:39:12;21.80;99.90
30628;DHT22;17394;50.890;4.724;2023-05-29T13:41:38;21.70;99.90
30628;DHT22;17394;50.890;4.724;2023-05-29T13:44:04;21.70;99.90
30628;DHT22;17394;50.890;4.724;2023-05-29T13:46:29;21.70;99.90
30628;DHT22;17394;50.890;4.724;2023-05-29T13:48:55;21.80;99.90
30628;DHT22;17394;50.890;4.724;2023-05-29T13:51:21;21.90;99.90
30628;DHT22;17394;50.890;4.724;2023-05-29T13:53:47;22.00;99.90
30628;DHT22;17394;50.890;4.724;2023-05-29T13:56:13;21.80;99.90
30628;DHT22;17394;50.890;4.724;2023-05-29T13:58:39;21.60;99.90
30628;DHT22;17394;50.890;4.724;2023-05-29T14:01:04;21.50;99.90
30628;DHT22;17394;50.890;4.724;2023-05-29T14:03:30;21.50;99.90
30628;DHT22;17394;50.890;4.724;2023-05-29T14:05:57;21.50;99.90
30628;DHT22;17394;50.890;4.724;2023-05-29T14:08:23;21.40;99.90
30628;DHT22;17394;50.890;4.724;2023-05-29T14:10:49;21.40;99.90
30628;DHT22;17394;50.890;4.724;2023-05-29T14:13:16;21.50;99.90
30628;DHT22;17394;50.890;4.724;2023-05-29T14:15:42;21.60;99.90
30628;DHT22;17394;50.890;4.724;2023-05-29T14:18:08;21.70;99.90
30628;DHT22;17394;50.890;4.724;2023-05-29T14:20:34;21.80;99.90
30628;DHT22;17394;50.890;4.724;2023-05-29T14:23:00;21.90;99.90
30628;DHT22;17394;50.890;4.724;2023-05-29T14:25:27;22.10;99.90
30628;DHT22;17394;50.890;4.724;2023-05-29T14:27:52;22.10;99.90
30628;DHT22;17394;50.890;4.724;2023-05-29T14:30:18;22.00;99.90
30628;DHT22;17394;50.890;4.724;2023-05-29T14:32:45;21.80;99.90
30628;DHT22;17394;50.890;4.724;2023-05-29T14:35:12;21.60;99.90
30628;DHT22;17394;50.890;4.724;2023-05-29T14:37:39;21.70;99.90
30628;DHT22;17394;50.890;4.724;2023-05-29T14:40:07;21.80;99.90
30628;DHT22;17394;50.890;4.724;2023-05-29T14:42:34;21.90;99.90
30628;DHT22;17394;50.890;4.724;2023-05-29T14:45:00;21.90;99.90
30628;DHT22;17394;50.890;4.724;2023-05-29T14:47:27;22.00;99.90
30628;DHT22;17394;50.890;4.724;2023-05-29T14:49:53;21.90;99.90
30628;DHT22;17394;50.890;4.724;2023-05-29T14:52:19;21.90;99.90
30628;DHT22;17394;50.890;4.724;2023-05-29T14:54:45;21.80;99.90
30628;DHT22;17394;50.890;4.724;2023-05-29T14:57:11;21.80;99.90
30628;DHT22;17394;50.890;4.724;2023-05-29T14:59:37;21.80;99.90
30628;DHT22;17394;50.890;4.724;2023-05-29T15:02:04;21.60;99.90
30628;DHT22;17394;50.890;4.724;2023-05-29T15:04:31;21.50;99.90
30628;DHT22;17394;50.890;4.724;2023-05-29T15:06:57;21.40;99.90
30628;DHT22;17394;50.890;4.724;2023-05-29T15:09:24;21.30;99.90
30628;DHT22;17394;50.890;4.724;2023-05-29T15:11:50;21.10;99.90
30628;DHT22;17394;50.890;4.724;2023-05-29T15:14:16;21.10;99.90
30628;DHT22;17394;50.890;4.724;2023-05-29T15:16:42;21.30;99.90
30628;DHT22;17394;50.890;4.724;2023-05-29T15:19:09;21.30;99.90
30628;DHT22;17394;50.890;4.724;2023-05-29T15:21:35;21.40;99.90
30628;DHT22;17394;50.890;4.724;2023-05-29T15:24:02;21.40;99.90
30628;DHT22;17394;50.890;4.724;2023-05-29T15:26:28;21.40;99.90
30628;DHT22;17394;50.890;4.724;2023-05-29T15:28:54;21.30;99.90
30628;DHT22;17394;50.890;4.724;2023-05-29T15:31:21;21.30;99.90
30628;DHT22;17394;50.890;4.724;2023-05-29T15:33:48;21.30;99.90
30628;DHT22;17394;50.890;4.724;2023-05-29T15:36:14;21.20;99.90
30628;DHT22;17394;50.890;4.724;2023-05-29T15:38:48;21.00;99.90
30628;DHT22;17394;50.890;4.724;2023-05-29T15:41:14;20.80;99.90
30628;DHT22;17394;50.890;4.724;2023-05-29T15:43:41;20.70;99.90
30628;DHT22;17394;50.890;4.724;2023-05-29T15:46:07;20.60;99.90
30628;DHT22;17394;50.890;4.724;2023-05-29T15:48:34;20.50;99.90
30628;DHT22;17394;50.890;4.724;2023-05-29T15:51:00;20.50;99.90
30628;DHT22;17394;50.890;4.724;2023-05-29T15:53:26;20.50;99.90
30628;DHT22;17394;50.890;4.724;2023-05-29T15:55:52;20.40;99.90
30628;DHT22;17394;50.890;4.724;2023-05-29T15:58:18;20.30;99.90